Time;durP1;ratioP1;P1;durP2;ratioP2;P2;SDS_P1;SDS_P2;PMS_P1;PMS_P2;Temp;Humidity;BMP_temperature;BMP_pressure;BME280_temperature;BME280_humidity;BME280_pressure;Samples;Min_cycle;Max_cycle;Signal;HPM_P1;HPM_P2
2020/09/24 00:00:51;;;;;;;6.2;3.900001;;;;;;;12.47;100;94489.71;;;;
2020/09/24 00:01:52;;;;;;;6.2;3.900001;;;;;;;12.47;100;94489.71;;;;
2020/09/24 00:02:52;;;;;;;6.2;3.900001;;;;;;;12.47;100;94489.71;;;;
2020/09/24 00:03:53;;;;;;;6.2;3.900001;;;;;;;12.47;100;94489.71;;;;
2020/09/24 00:04:54;;;;;;;6.2;3.900001;;;;;;;12.47;100;94489.71;;;;
2020/09/24 00:05:54;;;;;;;6.2;3.900001;;;;;;;12.47;100;94489.71;;;;
2020/09/24 00:06:55;;;;;;;4.1;3.7;;;;;;;12.52;100;94497.85;;;;
2020/09/24 00:07:56;;;;;;;4.1;3.7;;;;;;;12.52;100;94497.85;;;;
2020/09/24 00:08:56;;;;;;;4.1;3.7;;;;;;;12.52;100;94497.85;;;;
2020/09/24 00:09:57;;;;;;;4.1;3.7;;;;;;;12.52;100;94497.85;;;;
2020/09/24 00:10:57;;;;;;;4.1;3.7;;;;;;;12.52;100;94497.85;;;;
2020/09/24 00:11:58;;;;;;;4.1;3.7;;;;;;;12.52;100;94497.85;;;;
2020/09/24 00:12:58;;;;;;;4.1;3.7;;;;;;;12.52;100;94497.85;;;;
2020/09/24 00:13:59;;;;;;;4.1;3.7;;;;;;;12.52;100;94497.85;;;;
2020/09/24 00:14:59;;;;;;;4.1;3.7;;;;;;;12.52;100;94497.85;;;;
2020/09/24 00:16:00;;;;;;;4.1;3.7;;;;;;;12.52;100;94497.85;;;;
2020/09/24 00:17:03;;;;;;;4.699999;3.6;;;;;;;12.45;100;94490.92;;;;
2020/09/24 00:18:04;;;;;;;4.699999;3.6;;;;;;;12.45;100;94490.92;;;;
2020/09/24 00:19:04;;;;;;;4.699999;3.6;;;;;;;12.45;100;94490.92;;;;
2020/09/24 00:20:05;;;;;;;4.699999;3.6;;;;;;;12.45;100;94490.92;;;;
2020/09/24 00:21:05;;;;;;;4.699999;3.6;;;;;;;12.45;100;94490.92;;;;
2020/09/24 00:22:06;;;;;;;4.699999;3.6;;;;;;;12.45;100;94490.92;;;;
2020/09/24 00:23:07;;;;;;;4.699999;3.6;;;;;;;12.45;100;94490.92;;;;
2020/09/24 00:24:07;;;;;;;4.699999;3.6;;;;;;;12.45;100;94490.92;;;;
2020/09/24 00:25:08;;;;;;;4.699999;3.6;;;;;;;12.45;100;94490.92;;;;
2020/09/24 00:26:08;;;;;;;4.699999;3.6;;;;;;;12.45;100;94490.92;;;;
2020/09/24 00:27:09;;;;;;;4.699999;3.6;;;;;;;12.45;100;94490.92;;;;
2020/09/24 00:28:09;;;;;;;3.900001;3.05;;;;;;;12.34;100;94483.44;;;;
2020/09/24 00:29:10;;;;;;;3.900001;3.05;;;;;;;12.34;100;94483.44;;;;
2020/09/24 00:30:10;;;;;;;3.900001;3.05;;;;;;;12.34;100;94483.44;;;;
2020/09/24 00:31:11;;;;;;;3.900001;3.05;;;;;;;12.34;100;94483.44;;;;
2020/09/24 00:32:11;;;;;;;3.900001;3.05;;;;;;;12.34;100;94483.44;;;;
2020/09/24 00:33:11;;;;;;;3.900001;3.05;;;;;;;12.34;100;94483.44;;;;
2020/09/24 00:34:12;;;;;;;3.900001;3.05;;;;;;;12.34;100;94483.44;;;;
2020/09/24 00:35:12;;;;;;;3.900001;3.05;;;;;;;12.34;100;94483.44;;;;
2020/09/24 00:36:13;;;;;;;3.900001;3.05;;;;;;;12.34;100;94483.44;;;;
2020/09/24 00:37:13;;;;;;;3.900001;3.05;;;;;;;12.34;100;94483.44;;;;
2020/09/24 00:38:14;;;;;;;3.8;3.5;;;;;;;12.13;100;94482.15;;;;
2020/09/24 00:39:14;;;;;;;3.8;3.5;;;;;;;12.13;100;94482.15;;;;
2020/09/24 00:40:15;;;;;;;3.8;3.5;;;;;;;12.13;100;94482.15;;;;
2020/09/24 00:41:15;;;;;;;3.8;3.5;;;;;;;12.13;100;94482.15;;;;
2020/09/24 00:42:16;;;;;;;3.8;3.5;;;;;;;12.13;100;94482.15;;;;
2020/09/24 00:43:16;;;;;;;3.8;3.5;;;;;;;12.13;100;94482.15;;;;
2020/09/24 00:44:17;;;;;;;3.8;3.5;;;;;;;12.13;100;94482.15;;;;
2020/09/24 00:45:17;;;;;;;3.8;3.5;;;;;;;12.13;100;94482.15;;;;
2020/09/24 00:46:18;;;;;;;3.8;3.5;;;;;;;12.13;100;94482.15;;;;
2020/09/24 00:47:19;;;;;;;3.8;3.5;;;;;;;12.13;100;94482.15;;;;
2020/09/24 00:48:20;;;;;;;3.8;3.5;;;;;;;12.13;100;94482.15;;;;
2020/09/24 00:49:20;;;;;;;4.35;3.05;;;;;;;11.99;100;94478.73;;;;
2020/09/24 00:50:21;;;;;;;4.35;3.05;;;;;;;11.99;100;94478.73;;;;
2020/09/24 00:51:22;;;;;;;4.35;3.05;;;;;;;11.99;100;94478.73;;;;
2020/09/24 00:52:22;;;;;;;4.35;3.05;;;;;;;11.99;100;94478.73;;;;
2020/09/24 00:53:23;;;;;;;4.35;3.05;;;;;;;11.99;100;94478.73;;;;
2020/09/24 00:54:23;;;;;;;4.35;3.05;;;;;;;11.99;100;94478.73;;;;
2020/09/24 00:55:24;;;;;;;4.35;3.05;;;;;;;11.99;100;94478.73;;;;
2020/09/24 00:56:24;;;;;;;4.35;3.05;;;;;;;11.99;100;94478.73;;;;
2020/09/24 00:57:25;;;;;;;4.35;3.05;;;;;;;11.99;100;94478.73;;;;
2020/09/24 00:58:25;;;;;;;4.35;3.05;;;;;;;11.99;100;94478.73;;;;
2020/09/24 00:59:26;;;;;;;3.9;3.6;;;;;;;11.82;100;94487.14;;;;
2020/09/24 01:00:26;;;;;;;3.9;3.6;;;;;;;11.82;100;94487.14;;;;
2020/09/24 01:01:27;;;;;;;3.9;3.6;;;;;;;11.82;100;94487.14;;;;
2020/09/24 01:02:28;;;;;;;3.9;3.6;;;;;;;11.82;100;94487.14;;;;
2020/09/24 01:03:28;;;;;;;3.9;3.6;;;;;;;11.82;100;94487.14;;;;
2020/09/24 01:04:29;;;;;;;3.9;3.6;;;;;;;11.82;100;94487.14;;;;
2020/09/24 01:05:30;;;;;;;3.9;3.6;;;;;;;11.82;100;94487.14;;;;
2020/09/24 01:06:30;;;;;;;3.9;3.6;;;;;;;11.82;100;94487.14;;;;
2020/09/24 01:07:31;;;;;;;3.9;3.6;;;;;;;11.82;100;94487.14;;;;
2020/09/24 01:08:31;;;;;;;3.9;3.6;;;;;;;11.82;100;94487.14;;;;
2020/09/24 01:09:32;;;;;;;3.9;3.6;;;;;;;11.82;100;94487.14;;;;
2020/09/24 01:10:32;;;;;;;4.05;3.2;;;;;;;11.72;100;94486.16;;;;
2020/09/24 01:11:33;;;;;;;4.05;3.2;;;;;;;11.72;100;94486.16;;;;
2020/09/24 01:12:33;;;;;;;4.05;3.2;;;;;;;11.72;100;94486.16;;;;
2020/09/24 01:13:34;;;;;;;4.05;3.2;;;;;;;11.72;100;94486.16;;;;
2020/09/24 01:14:34;;;;;;;4.05;3.2;;;;;;;11.72;100;94486.16;;;;
2020/09/24 01:15:35;;;;;;;4.05;3.2;;;;;;;11.72;100;94486.16;;;;
2020/09/24 01:16:35;;;;;;;4.05;3.2;;;;;;;11.72;100;94486.16;;;;
2020/09/24 01:17:36;;;;;;;4.05;3.2;;;;;;;11.72;100;94486.16;;;;
2020/09/24 01:18:37;;;;;;;4.05;3.2;;;;;;;11.72;100;94486.16;;;;
2020/09/24 01:19:37;;;;;;;4.05;3.2;;;;;;;11.72;100;94486.16;;;;
2020/09/24 01:20:38;;;;;;;5.4;3.15;;;;;;;11.55;100;94491.44;;;;
2020/09/24 01:21:39;;;;;;;5.4;3.15;;;;;;;11.55;100;94491.44;;;;
2020/09/24 01:22:46;;;;;;;5.4;3.15;;;;;;;11.55;100;94491.44;;;;
2020/09/24 01:23:46;;;;;;;5.4;3.15;;;;;;;11.55;100;94491.44;;;;
2020/09/24 01:24:47;;;;;;;5.4;3.15;;;;;;;11.55;100;94491.44;;;;
2020/09/24 01:25:47;;;;;;;5.4;3.15;;;;;;;11.55;100;94491.44;;;;
2020/09/24 01:26:48;;;;;;;5.4;3.15;;;;;;;11.55;100;94491.44;;;;
2020/09/24 01:27:48;;;;;;;5.4;3.15;;;;;;;11.55;100;94491.44;;;;
2020/09/24 01:28:49;;;;;;;5.4;3.15;;;;;;;11.55;100;94491.44;;;;
2020/09/24 01:29:49;;;;;;;5.4;3.15;;;;;;;11.55;100;94491.44;;;;
2020/09/24 01:30:50;;;;;;;5.4;3.15;;;;;;;11.55;100;94491.44;;;;
2020/09/24 01:31:51;;;;;;;5.600001;3.5;;;;;;;11.52;100;94484.25;;;;
2020/09/24 01:32:52;;;;;;;5.600001;3.5;;;;;;;11.52;100;94484.25;;;;
2020/09/24 01:33:52;;;;;;;5.600001;3.5;;;;;;;11.52;100;94484.25;;;;
2020/09/24 01:34:53;;;;;;;5.600001;3.5;;;;;;;11.52;100;94484.25;;;;
2020/09/24 01:35:53;;;;;;;5.600001;3.5;;;;;;;11.52;100;94484.25;;;;
2020/09/24 01:36:54;;;;;;;5.600001;3.5;;;;;;;11.52;100;94484.25;;;;
2020/09/24 01:37:54;;;;;;;5.600001;3.5;;;;;;;11.52;100;94484.25;;;;
2020/09/24 01:38:55;;;;;;;5.600001;3.5;;;;;;;11.52;100;94484.25;;;;
2020/09/24 01:39:56;;;;;;;5.600001;3.5;;;;;;;11.52;100;94484.25;;;;
2020/09/24 01:40:56;;;;;;;5.600001;3.5;;;;;;;11.52;100;94484.25;;;;
2020/09/24 01:41:57;;;;;;;5.600001;3.5;;;;;;;11.52;100;94484.25;;;;
2020/09/24 01:42:57;;;;;;;3.9;3.4;;;;;;;11.53;100;94489.95;;;;
2020/09/24 01:43:58;;;;;;;3.9;3.4;;;;;;;11.53;100;94489.95;;;;
2020/09/24 01:44:58;;;;;;;3.9;3.4;;;;;;;11.53;100;94489.95;;;;
2020/09/24 01:45:59;;;;;;;3.9;3.4;;;;;;;11.53;100;94489.95;;;;
2020/09/24 01:46:59;;;;;;;3.9;3.4;;;;;;;11.53;100;94489.95;;;;
2020/09/24 01:48:00;;;;;;;3.9;3.4;;;;;;;11.53;100;94489.95;;;;
2020/09/24 01:49:00;;;;;;;3.9;3.4;;;;;;;11.53;100;94489.95;;;;
2020/09/24 01:50:01;;;;;;;3.9;3.4;;;;;;;11.53;100;94489.95;;;;
2020/09/24 01:51:01;;;;;;;3.9;3.4;;;;;;;11.53;100;94489.95;;;;
2020/09/24 01:52:02;;;;;;;3.9;3.4;;;;;;;11.53;100;94489.95;;;;
2020/09/24 01:53:02;;;;;;;3.15;2.85;;;;;;;11.52;100;94483.72;;;;
2020/09/24 01:54:03;;;;;;;3.15;2.85;;;;;;;11.52;100;94483.72;;;;
2020/09/24 01:55:03;;;;;;;3.15;2.85;;;;;;;11.52;100;94483.72;;;;
2020/09/24 01:56:04;;;;;;;3.15;2.85;;;;;;;11.52;100;94483.72;;;;
2020/09/24 01:57:04;;;;;;;3.15;2.85;;;;;;;11.52;100;94483.72;;;;
2020/09/24 01:58:05;;;;;;;3.15;2.85;;;;;;;11.52;100;94483.72;;;;
2020/09/24 01:59:05;;;;;;;3.15;2.85;;;;;;;11.52;100;94483.72;;;;
2020/09/24 02:00:06;;;;;;;3.15;2.85;;;;;;;11.52;100;94483.72;;;;
2020/09/24 02:01:06;;;;;;;3.15;2.85;;;;;;;11.52;100;94483.72;;;;
2020/09/24 02:02:07;;;;;;;3.15;2.85;;;;;;;11.52;100;94483.72;;;;
2020/09/24 02:03:07;;;;;;;3.15;2.85;;;;;;;11.52;100;94483.72;;;;
2020/09/24 02:04:08;;;;;;;4.5;3.25;;;;;;;11.35;100;94491.72;;;;
2020/09/24 02:05:08;;;;;;;4.5;3.25;;;;;;;11.35;100;94491.72;;;;
2020/09/24 02:06:09;;;;;;;4.5;3.25;;;;;;;11.35;100;94491.72;;;;
2020/09/24 02:07:09;;;;;;;4.5;3.25;;;;;;;11.35;100;94491.72;;;;
2020/09/24 02:08:10;;;;;;;4.5;3.25;;;;;;;11.35;100;94491.72;;;;
2020/09/24 02:09:10;;;;;;;4.5;3.25;;;;;;;11.35;100;94491.72;;;;
2020/09/24 02:10:11;;;;;;;4.5;3.25;;;;;;;11.35;100;94491.72;;;;
2020/09/24 02:11:11;;;;;;;4.5;3.25;;;;;;;11.35;100;94491.72;;;;
2020/09/24 02:12:12;;;;;;;4.5;3.25;;;;;;;11.35;100;94491.72;;;;
2020/09/24 02:13:12;;;;;;;4.5;3.25;;;;;;;11.35;100;94491.72;;;;
2020/09/24 02:14:13;;;;;;;4.099999;3.3;;;;;;;11.29;100;94487.75;;;;
2020/09/24 02:15:13;;;;;;;4.099999;3.3;;;;;;;11.29;100;94487.75;;;;
2020/09/24 02:16:14;;;;;;;4.099999;3.3;;;;;;;11.29;100;94487.75;;;;
2020/09/24 02:17:14;;;;;;;4.099999;3.3;;;;;;;11.29;100;94487.75;;;;
2020/09/24 02:18:15;;;;;;;4.099999;3.3;;;;;;;11.29;100;94487.75;;;;
2020/09/24 02:19:15;;;;;;;4.099999;3.3;;;;;;;11.29;100;94487.75;;;;
2020/09/24 02:20:16;;;;;;;4.099999;3.3;;;;;;;11.29;100;94487.75;;;;
2020/09/24 02:21:16;;;;;;;4.099999;3.3;;;;;;;11.29;100;94487.75;;;;
2020/09/24 02:22:17;;;;;;;4.099999;3.3;;;;;;;11.29;100;94487.75;;;;
2020/09/24 02:23:18;;;;;;;4.099999;3.3;;;;;;;11.29;100;94487.75;;;;
2020/09/24 02:24:18;;;;;;;4.099999;3.3;;;;;;;11.29;100;94487.75;;;;
2020/09/24 02:25:19;;;;;;;3.7;3.4;;;;;;;11.22;100;94478.64;;;;
2020/09/24 02:26:19;;;;;;;3.7;3.4;;;;;;;11.22;100;94478.64;;;;
2020/09/24 02:27:19;;;;;;;3.7;3.4;;;;;;;11.22;100;94478.64;;;;
2020/09/24 02:28:20;;;;;;;3.7;3.4;;;;;;;11.22;100;94478.64;;;;
2020/09/24 02:29:20;;;;;;;3.7;3.4;;;;;;;11.22;100;94478.64;;;;
2020/09/24 02:30:21;;;;;;;3.7;3.4;;;;;;;11.22;100;94478.64;;;;
2020/09/24 02:31:21;;;;;;;3.7;3.4;;;;;;;11.22;100;94478.64;;;;
2020/09/24 02:32:22;;;;;;;3.7;3.4;;;;;;;11.22;100;94478.64;;;;
2020/09/24 02:33:22;;;;;;;3.7;3.4;;;;;;;11.22;100;94478.64;;;;
2020/09/24 02:34:23;;;;;;;3.7;3.4;;;;;;;11.22;100;94478.64;;;;
2020/09/24 02:35:23;;;;;;;4.5;3.6;;;;;;;11.22;100;94475.42;;;;
2020/09/24 02:36:24;;;;;;;4.5;3.6;;;;;;;11.22;100;94475.42;;;;
2020/09/24 02:37:24;;;;;;;4.5;3.6;;;;;;;11.22;100;94475.42;;;;
2020/09/24 02:38:25;;;;;;;4.5;3.6;;;;;;;11.22;100;94475.42;;;;
2020/09/24 02:39:25;;;;;;;4.5;3.6;;;;;;;11.22;100;94475.42;;;;
2020/09/24 02:40:26;;;;;;;4.5;3.6;;;;;;;11.22;100;94475.42;;;;
2020/09/24 02:41:26;;;;;;;4.5;3.6;;;;;;;11.22;100;94475.42;;;;
2020/09/24 02:42:27;;;;;;;4.5;3.6;;;;;;;11.22;100;94475.42;;;;
2020/09/24 02:43:27;;;;;;;4.5;3.6;;;;;;;11.22;100;94475.42;;;;
2020/09/24 02:44:28;;;;;;;4.5;3.6;;;;;;;11.22;100;94475.42;;;;
2020/09/24 02:45:28;;;;;;;4.5;3.6;;;;;;;11.22;100;94475.42;;;;
2020/09/24 02:46:29;;;;;;;4.15;3.5;;;;;;;11.19;100;94475.12;;;;
2020/09/24 02:47:29;;;;;;;4.15;3.5;;;;;;;11.19;100;94475.12;;;;
2020/09/24 02:48:30;;;;;;;4.15;3.5;;;;;;;11.19;100;94475.12;;;;
2020/09/24 02:49:30;;;;;;;4.15;3.5;;;;;;;11.19;100;94475.12;;;;
2020/09/24 02:50:32;;;;;;;4.15;3.5;;;;;;;11.19;100;94475.12;;;;
2020/09/24 02:51:32;;;;;;;4.15;3.5;;;;;;;11.19;100;94475.12;;;;
2020/09/24 02:52:32;;;;;;;4.15;3.5;;;;;;;11.19;100;94475.12;;;;
2020/09/24 02:53:33;;;;;;;4.15;3.5;;;;;;;11.19;100;94475.12;;;;
2020/09/24 02:54:34;;;;;;;4.15;3.5;;;;;;;11.19;100;94475.12;;;;
2020/09/24 02:55:34;;;;;;;4.15;3.5;;;;;;;11.19;100;94475.12;;;;
2020/09/24 02:56:35;;;;;;;4.15;3.5;;;;;;;11.19;100;94475.12;;;;
2020/09/24 02:57:35;;;;;;;4.95;3.35;;;;;;;11.22;100;94471.47;;;;
2020/09/24 02:58:36;;;;;;;4.95;3.35;;;;;;;11.22;100;94471.47;;;;
2020/09/24 02:59:36;;;;;;;4.95;3.35;;;;;;;11.22;100;94471.47;;;;
2020/09/24 03:00:37;;;;;;;4.95;3.35;;;;;;;11.22;100;94471.47;;;;
2020/09/24 03:01:37;;;;;;;4.95;3.35;;;;;;;11.22;100;94471.47;;;;
2020/09/24 03:02:38;;;;;;;4.95;3.35;;;;;;;11.22;100;94471.47;;;;
2020/09/24 03:03:38;;;;;;;4.95;3.35;;;;;;;11.22;100;94471.47;;;;
2020/09/24 03:04:39;;;;;;;4.95;3.35;;;;;;;11.22;100;94471.47;;;;
2020/09/24 03:05:39;;;;;;;4.95;3.35;;;;;;;11.22;100;94471.47;;;;
2020/09/24 03:06:39;;;;;;;4.95;3.35;;;;;;;11.22;100;94471.47;;;;
2020/09/24 03:07:40;;;;;;;3.7;3.4;;;;;;;11.18;100;94466.72;;;;
2020/09/24 03:08:41;;;;;;;3.7;3.4;;;;;;;11.18;100;94466.72;;;;
2020/09/24 03:09:41;;;;;;;3.7;3.4;;;;;;;11.18;100;94466.72;;;;
2020/09/24 03:10:42;;;;;;;3.7;3.4;;;;;;;11.18;100;94466.72;;;;
2020/09/24 03:11:43;;;;;;;3.7;3.4;;;;;;;11.18;100;94466.72;;;;
2020/09/24 03:12:44;;;;;;;3.7;3.4;;;;;;;11.18;100;94466.72;;;;
2020/09/24 03:13:44;;;;;;;3.7;3.4;;;;;;;11.18;100;94466.72;;;;
2020/09/24 03:14:45;;;;;;;3.7;3.4;;;;;;;11.18;100;94466.72;;;;
2020/09/24 03:15:45;;;;;;;3.7;3.4;;;;;;;11.18;100;94466.72;;;;
2020/09/24 03:16:46;;;;;;;3.7;3.4;;;;;;;11.18;100;94466.72;;;;
2020/09/24 03:17:46;;;;;;;3.7;3.4;;;;;;;11.18;100;94466.72;;;;
2020/09/24 03:18:47;;;;;;;5.2;3.35;;;;;;;11.26;100;94473;;;;
2020/09/24 03:19:47;;;;;;;5.2;3.35;;;;;;;11.26;100;94473;;;;
2020/09/24 03:20:48;;;;;;;5.2;3.35;;;;;;;11.26;100;94473;;;;
2020/09/24 03:21:50;;;;;;;5.2;3.35;;;;;;;11.26;100;94473;;;;
2020/09/24 03:22:50;;;;;;;5.2;3.35;;;;;;;11.26;100;94473;;;;
2020/09/24 03:23:51;;;;;;;5.2;3.35;;;;;;;11.26;100;94473;;;;
2020/09/24 03:24:51;;;;;;;5.2;3.35;;;;;;;11.26;100;94473;;;;
2020/09/24 03:25:52;;;;;;;5.2;3.35;;;;;;;11.26;100;94473;;;;
2020/09/24 03:26:52;;;;;;;5.2;3.35;;;;;;;11.26;100;94473;;;;
2020/09/24 03:27:53;;;;;;;5.2;3.35;;;;;;;11.26;100;94473;;;;
2020/09/24 03:28:53;;;;;;;4.5;3.65;;;;;;;11.28;100;94477.59;;;;
2020/09/24 03:29:54;;;;;;;4.5;3.65;;;;;;;11.28;100;94477.59;;;;
2020/09/24 03:30:54;;;;;;;4.5;3.65;;;;;;;11.28;100;94477.59;;;;
2020/09/24 03:31:55;;;;;;;4.5;3.65;;;;;;;11.28;100;94477.59;;;;
2020/09/24 03:32:56;;;;;;;4.5;3.65;;;;;;;11.28;100;94477.59;;;;
2020/09/24 03:33:57;;;;;;;4.5;3.65;;;;;;;11.28;100;94477.59;;;;
2020/09/24 03:34:57;;;;;;;4.5;3.65;;;;;;;11.28;100;94477.59;;;;
2020/09/24 03:35:58;;;;;;;4.5;3.65;;;;;;;11.28;100;94477.59;;;;
2020/09/24 03:36:58;;;;;;;4.5;3.65;;;;;;;11.28;100;94477.59;;;;
2020/09/24 03:37:59;;;;;;;4.5;3.65;;;;;;;11.28;100;94477.59;;;;
2020/09/24 03:38:59;;;;;;;4.5;3.65;;;;;;;11.28;100;94477.59;;;;
2020/09/24 03:40:00;;;;;;;3.2;2.900001;;;;;;;11.33;100;94475.73;;;;
2020/09/24 03:41:00;;;;;;;3.2;2.900001;;;;;;;11.33;100;94475.73;;;;
2020/09/24 03:42:01;;;;;;;3.2;2.900001;;;;;;;11.33;100;94475.73;;;;
2020/09/24 03:43:02;;;;;;;3.2;2.900001;;;;;;;11.33;100;94475.73;;;;
2020/09/24 03:44:02;;;;;;;3.2;2.900001;;;;;;;11.33;100;94475.73;;;;
2020/09/24 03:45:03;;;;;;;3.2;2.900001;;;;;;;11.33;100;94475.73;;;;
2020/09/24 03:46:04;;;;;;;3.2;2.900001;;;;;;;11.33;100;94475.73;;;;
2020/09/24 03:47:05;;;;;;;3.2;2.900001;;;;;;;11.33;100;94475.73;;;;
2020/09/24 03:48:05;;;;;;;3.2;2.900001;;;;;;;11.33;100;94475.73;;;;
2020/09/24 03:49:06;;;;;;;3.2;2.900001;;;;;;;11.33;100;94475.73;;;;
2020/09/24 03:50:06;;;;;;;4.399999;3.1;;;;;;;11.31;100;94471.15;;;;
2020/09/24 03:51:07;;;;;;;4.399999;3.1;;;;;;;11.31;100;94471.15;;;;
2020/09/24 03:52:07;;;;;;;4.399999;3.1;;;;;;;11.31;100;94471.15;;;;
2020/09/24 03:53:08;;;;;;;4.399999;3.1;;;;;;;11.31;100;94471.15;;;;
2020/09/24 03:54:08;;;;;;;4.399999;3.1;;;;;;;11.31;100;94471.15;;;;
2020/09/24 03:55:14;;;;;;;4.399999;3.1;;;;;;;11.31;100;94471.15;;;;
2020/09/24 03:56:15;;;;;;;4.399999;3.1;;;;;;;11.31;100;94471.15;;;;
2020/09/24 03:57:24;;;;;;;4.399999;3.1;;;;;;;11.31;100;94471.15;;;;
2020/09/24 03:58:25;;;;;;;4.399999;3.1;;;;;;;11.31;100;94471.15;;;;
2020/09/24 03:59:25;;;;;;;4.399999;3.1;;;;;;;11.31;100;94471.15;;;;
2020/09/24 04:00:31;;;;;;;4.399999;3.1;;;;;;;11.31;100;94471.15;;;;
2020/09/24 04:01:32;;;;;;;4.4;3.55;;;;;;;11.33;100;94474.38;;;;
2020/09/24 04:02:32;;;;;;;4.4;3.55;;;;;;;11.33;100;94474.38;;;;
2020/09/24 04:03:33;;;;;;;4.4;3.55;;;;;;;11.33;100;94474.38;;;;
2020/09/24 04:04:33;;;;;;;4.4;3.55;;;;;;;11.33;100;94474.38;;;;
2020/09/24 04:05:34;;;;;;;4.4;3.55;;;;;;;11.33;100;94474.38;;;;
2020/09/24 04:06:34;;;;;;;4.4;3.55;;;;;;;11.33;100;94474.38;;;;
2020/09/24 04:07:35;;;;;;;4.4;3.55;;;;;;;11.33;100;94474.38;;;;
2020/09/24 04:08:35;;;;;;;4.4;3.55;;;;;;;11.33;100;94474.38;;;;
2020/09/24 04:09:38;;;;;;;4.4;3.55;;;;;;;11.33;100;94474.38;;;;
2020/09/24 04:10:41;;;;;;;4.4;3.55;;;;;;;11.33;100;94474.38;;;;
2020/09/24 04:11:41;;;;;;;3.8;3.45;;;;;;;11.4;100;94473.61;;;;
2020/09/24 04:12:52;;;;;;;3.8;3.45;;;;;;;11.4;100;94473.61;;;;
2020/09/24 04:13:52;;;;;;;3.8;3.45;;;;;;;11.4;100;94473.61;;;;
2020/09/24 04:14:57;;;;;;;3.8;3.45;;;;;;;11.4;100;94473.61;;;;
2020/09/24 04:15:57;;;;;;;3.8;3.45;;;;;;;11.4;100;94473.61;;;;
2020/09/24 04:17:06;;;;;;;3.8;3.45;;;;;;;11.4;100;94473.61;;;;
2020/09/24 04:18:13;;;;;;;3.8;3.45;;;;;;;11.4;100;94473.61;;;;
2020/09/24 04:19:14;;;;;;;3.8;3.45;;;;;;;11.4;100;94473.61;;;;
2020/09/24 04:20:14;;;;;;;3.8;3.45;;;;;;;11.4;100;94473.61;;;;
2020/09/24 04:21:19;;;;;;;3.8;3.45;;;;;;;11.4;100;94473.61;;;;
2020/09/24 04:22:19;;;;;;;5.05;3.35;;;;;;;11.56;100;94476.72;;;;
2020/09/24 04:23:38;;;;;;;5.05;3.35;;;;;;;11.56;100;94476.72;;;;
2020/09/24 04:24:38;;;;;;;5.05;3.35;;;;;;;11.56;100;94476.72;;;;
2020/09/24 04:25:39;;;;;;;5.05;3.35;;;;;;;11.56;100;94476.72;;;;
2020/09/24 04:26:39;;;;;;;5.05;3.35;;;;;;;11.56;100;94476.72;;;;
2020/09/24 04:27:40;;;;;;;5.05;3.35;;;;;;;11.56;100;94476.72;;;;
2020/09/24 04:28:44;;;;;;;5.05;3.35;;;;;;;11.56;100;94476.72;;;;
2020/09/24 04:29:54;;;;;;;5.05;3.35;;;;;;;11.56;100;94476.72;;;;
2020/09/24 04:30:57;;;;;;;5.05;3.35;;;;;;;11.56;100;94476.72;;;;
2020/09/24 04:31:58;;;;;;;5.05;3.35;;;;;;;11.56;100;94476.72;;;;
2020/09/24 04:32:58;;;;;;;3.649999;3.35;;;;;;;11.66;100;94479.1;;;;
2020/09/24 04:33:59;;;;;;;3.649999;3.35;;;;;;;11.66;100;94479.1;;;;
2020/09/24 04:35:02;;;;;;;3.649999;3.35;;;;;;;11.66;100;94479.1;;;;
2020/09/24 04:36:05;;;;;;;3.649999;3.35;;;;;;;11.66;100;94479.1;;;;
2020/09/24 04:37:06;;;;;;;3.649999;3.35;;;;;;;11.66;100;94479.1;;;;
2020/09/24 04:38:10;;;;;;;3.649999;3.35;;;;;;;11.66;100;94479.1;;;;
2020/09/24 04:39:13;;;;;;;3.649999;3.35;;;;;;;11.66;100;94479.1;;;;
2020/09/24 04:40:16;;;;;;;3.649999;3.35;;;;;;;11.66;100;94479.1;;;;
2020/09/24 04:41:18;;;;;;;3.649999;3.35;;;;;;;11.66;100;94479.1;;;;
2020/09/24 04:42:19;;;;;;;3.649999;3.35;;;;;;;11.66;100;94479.1;;;;
2020/09/24 04:43:19;;;;;;;3.649999;3.35;;;;;;;11.66;100;94479.1;;;;
2020/09/24 04:44:20;;;;;;;3.95;3.45;;;;;;;11.81;100;94488.65;;;;
2020/09/24 04:45:20;;;;;;;3.95;3.45;;;;;;;11.81;100;94488.65;;;;
2020/09/24 04:46:22;;;;;;;3.95;3.45;;;;;;;11.81;100;94488.65;;;;
2020/09/24 04:47:23;;;;;;;3.95;3.45;;;;;;;11.81;100;94488.65;;;;
2020/09/24 04:48:24;;;;;;;3.95;3.45;;;;;;;11.81;100;94488.65;;;;
2020/09/24 04:49:25;;;;;;;3.95;3.45;;;;;;;11.81;100;94488.65;;;;
2020/09/24 04:50:41;;;;;;;3.95;3.45;;;;;;;11.81;100;94488.65;;;;
2020/09/24 04:51:49;;;;;;;3.95;3.45;;;;;;;11.81;100;94488.65;;;;
2020/09/24 04:52:55;;;;;;;3.95;3.45;;;;;;;11.81;100;94488.65;;;;
2020/09/24 04:54:05;;;;;;;4.5;3.7;;;;;;;11.85;100;94487.02;;;;
2020/09/24 04:55:07;;;;;;;4.5;3.7;;;;;;;11.85;100;94487.02;;;;
2020/09/24 04:56:11;;;;;;;4.5;3.7;;;;;;;11.85;100;94487.02;;;;
2020/09/24 04:57:14;;;;;;;4.5;3.7;;;;;;;11.85;100;94487.02;;;;
2020/09/24 04:58:16;;;;;;;4.5;3.7;;;;;;;11.85;100;94487.02;;;;
2020/09/24 04:59:18;;;;;;;4.5;3.7;;;;;;;11.85;100;94487.02;;;;
2020/09/24 05:00:18;;;;;;;4.5;3.7;;;;;;;11.85;100;94487.02;;;;
2020/09/24 05:01:24;;;;;;;4.5;3.7;;;;;;;11.85;100;94487.02;;;;
2020/09/24 05:02:25;;;;;;;4.5;3.7;;;;;;;11.85;100;94487.02;;;;
2020/09/24 05:03:29;;;;;;;4.5;3.7;;;;;;;11.85;100;94487.02;;;;
2020/09/24 05:04:30;;;;;;;4.5;3.7;;;;;;;11.85;100;94487.02;;;;
2020/09/24 05:05:32;;;;;;;4.25;3.5;;;;;;;11.86;100;94493.25;;;;
2020/09/24 05:06:34;;;;;;;4.25;3.5;;;;;;;11.86;100;94493.25;;;;
2020/09/24 05:07:36;;;;;;;4.25;3.5;;;;;;;11.86;100;94493.25;;;;
2020/09/24 05:08:37;;;;;;;4.25;3.5;;;;;;;11.86;100;94493.25;;;;
2020/09/24 05:09:54;;;;;;;4.25;3.5;;;;;;;11.86;100;94493.25;;;;
2020/09/24 05:10:55;;;;;;;4.25;3.5;;;;;;;11.86;100;94493.25;;;;
2020/09/24 05:11:58;;;;;;;4.25;3.5;;;;;;;11.86;100;94493.25;;;;
2020/09/24 05:12:59;;;;;;;4.25;3.5;;;;;;;11.86;100;94493.25;;;;
2020/09/24 05:14:00;;;;;;;4.25;3.5;;;;;;;11.86;100;94493.25;;;;
2020/09/24 05:15:03;;;;;;;4.25;3.5;;;;;;;11.86;100;94493.25;;;;
2020/09/24 05:16:06;;;;;;;4.7;3.8;;;;;;;11.8;100;94489.29;;;;
2020/09/24 05:17:06;;;;;;;4.7;3.8;;;;;;;11.8;100;94489.29;;;;
2020/09/24 05:18:07;;;;;;;4.7;3.8;;;;;;;11.8;100;94489.29;;;;
2020/09/24 05:19:34;;;;;;;4.7;3.8;;;;;;;11.8;100;94489.29;;;;
2020/09/24 05:20:39;;;;;;;4.7;3.8;;;;;;;11.8;100;94489.29;;;;
2020/09/24 05:21:39;;;;;;;4.7;3.8;;;;;;;11.8;100;94489.29;;;;
2020/09/24 05:22:40;;;;;;;4.7;3.8;;;;;;;11.8;100;94489.29;;;;
2020/09/24 05:23:41;;;;;;;4.7;3.8;;;;;;;11.8;100;94489.29;;;;
2020/09/24 05:24:41;;;;;;;4.7;3.8;;;;;;;11.8;100;94489.29;;;;
2020/09/24 05:25:45;;;;;;;4.7;3.8;;;;;;;11.8;100;94489.29;;;;
2020/09/24 05:26:45;;;;;;;5.599999;4.1;;;;;;;11.92;100;94503.44;;;;
2020/09/24 05:27:46;;;;;;;5.599999;4.1;;;;;;;11.92;100;94503.44;;;;
2020/09/24 05:28:46;;;;;;;5.599999;4.1;;;;;;;11.92;100;94503.44;;;;
2020/09/24 05:29:47;;;;;;;5.599999;4.1;;;;;;;11.92;100;94503.44;;;;
2020/09/24 05:30:53;;;;;;;5.599999;4.1;;;;;;;11.92;100;94503.44;;;;
2020/09/24 05:31:53;;;;;;;5.599999;4.1;;;;;;;11.92;100;94503.44;;;;
2020/09/24 05:32:54;;;;;;;5.599999;4.1;;;;;;;11.92;100;94503.44;;;;
2020/09/24 05:33:54;;;;;;;5.599999;4.1;;;;;;;11.92;100;94503.44;;;;
2020/09/24 05:35:00;;;;;;;5.599999;4.1;;;;;;;11.92;100;94503.44;;;;
2020/09/24 05:36:03;;;;;;;5.599999;4.1;;;;;;;11.92;100;94503.44;;;;
2020/09/24 05:37:05;;;;;;;5.95;4.500001;;;;;;;12.24;100;94507.78;;;;
2020/09/24 05:38:05;;;;;;;5.95;4.500001;;;;;;;12.24;100;94507.78;;;;
2020/09/24 05:39:06;;;;;;;5.95;4.500001;;;;;;;12.24;100;94507.78;;;;
2020/09/24 05:40:06;;;;;;;5.95;4.500001;;;;;;;12.24;100;94507.78;;;;
2020/09/24 05:41:07;;;;;;;5.95;4.500001;;;;;;;12.24;100;94507.78;;;;
2020/09/24 05:42:07;;;;;;;5.95;4.500001;;;;;;;12.24;100;94507.78;;;;
2020/09/24 05:43:09;;;;;;;5.95;4.500001;;;;;;;12.24;100;94507.78;;;;
2020/09/24 05:44:09;;;;;;;5.95;4.500001;;;;;;;12.24;100;94507.78;;;;
2020/09/24 05:45:10;;;;;;;5.95;4.500001;;;;;;;12.24;100;94507.78;;;;
2020/09/24 05:46:11;;;;;;;5.95;4.500001;;;;;;;12.24;100;94507.78;;;;
2020/09/24 05:47:12;;;;;;;5.95;4.500001;;;;;;;12.24;100;94507.78;;;;
2020/09/24 05:48:14;;;;;;;5.249999;4.55;;;;;;;12.84;100;94520.12;;;;
2020/09/24 05:49:14;;;;;;;5.249999;4.55;;;;;;;12.84;100;94520.12;;;;
2020/09/24 05:50:16;;;;;;;5.249999;4.55;;;;;;;12.84;100;94520.12;;;;
2020/09/24 05:51:25;;;;;;;5.249999;4.55;;;;;;;12.84;100;94520.12;;;;
2020/09/24 05:52:25;;;;;;;5.249999;4.55;;;;;;;12.84;100;94520.12;;;;
2020/09/24 05:53:26;;;;;;;5.249999;4.55;;;;;;;12.84;100;94520.12;;;;
2020/09/24 05:54:28;;;;;;;5.249999;4.55;;;;;;;12.84;100;94520.12;;;;
2020/09/24 05:55:31;;;;;;;5.249999;4.55;;;;;;;12.84;100;94520.12;;;;
2020/09/24 05:56:32;;;;;;;5.249999;4.55;;;;;;;12.84;100;94520.12;;;;
2020/09/24 05:57:36;;;;;;;5.249999;4.55;;;;;;;12.84;100;94520.12;;;;
2020/09/24 05:58:42;;;;;;;5.5;4.450001;;;;;;;13.35;100;94530.91;;;;
2020/09/24 05:59:45;;;;;;;5.5;4.450001;;;;;;;13.35;100;94530.91;;;;
2020/09/24 06:00:51;;;;;;;5.5;4.450001;;;;;;;13.35;100;94530.91;;;;
2020/09/24 06:01:52;;;;;;;5.5;4.450001;;;;;;;13.35;100;94530.91;;;;
2020/09/24 06:02:52;;;;;;;5.5;4.450001;;;;;;;13.35;100;94530.91;;;;
2020/09/24 06:04:00;;;;;;;5.5;4.450001;;;;;;;13.35;100;94530.91;;;;
2020/09/24 06:05:02;;;;;;;5.5;4.450001;;;;;;;13.35;100;94530.91;;;;
2020/09/24 06:06:04;;;;;;;5.5;4.450001;;;;;;;13.35;100;94530.91;;;;
2020/09/24 06:07:05;;;;;;;5.5;4.450001;;;;;;;13.35;100;94530.91;;;;
2020/09/24 06:08:23;;;;;;;5.5;4.450001;;;;;;;13.35;100;94530.91;;;;
2020/09/24 06:09:24;;;;;;;6.1;4.849999;;;;;;;13.82;100;94550.55;;;;
2020/09/24 06:10:38;;;;;;;6.1;4.849999;;;;;;;13.82;100;94550.55;;;;
2020/09/24 06:11:39;;;;;;;6.1;4.849999;;;;;;;13.82;100;94550.55;;;;
2020/09/24 06:12:39;;;;;;;6.1;4.849999;;;;;;;13.82;100;94550.55;;;;